Aviation Digital Data Service (ADDS)

Output produced by METARs form (1301 UTC 20 September 2017)
found at http://aviationweather.gov/adds/metars/
 
KHPN 201123Z 2012/2112 35015G22KT P6SM BKN035 
     TEMPO 2012/2014 35010KT BKN025 
     FM201700 34014G21KT P6SM BKN035 
     FM210200 35009KT P6SM SCT035 OVC250 AMD NOT SKED